createdAt,value
2019-03-12T00:00:57.602Z,16.55
2019-03-12T00:03:26.822Z,13.90
2019-03-12T00:05:55.996Z,9.83
2019-03-12T00:08:25.183Z,15.80
2019-03-12T00:10:54.409Z,13.78
2019-03-12T00:13:23.605Z,9.00
2019-03-12T00:15:52.886Z,10.88
2019-03-12T00:18:22.128Z,13.68
2019-03-12T00:20:51.394Z,13.15
2019-03-12T00:23:20.619Z,11.18
2019-03-12T00:25:49.804Z,5.92
2019-03-12T00:28:19.036Z,12.10
2019-03-12T00:30:48.228Z,10.05
2019-03-12T00:33:17.435Z,8.33
2019-03-12T00:35:46.629Z,10.93
2019-03-12T00:38:15.872Z,7.03
2019-03-12T00:40:45.078Z,8.75
2019-03-12T00:43:14.272Z,10.10
2019-03-12T00:45:43.512Z,6.60
2019-03-12T00:48:12.724Z,9.65
2019-03-12T00:50:41.947Z,9.25
2019-03-12T00:53:11.149Z,8.00
2019-03-12T00:55:40.350Z,10.05
2019-03-12T00:58:09.565Z,6.95
2019-03-12T01:00:38.783Z,8.28
2019-03-12T01:03:08.008Z,8.53
2019-03-12T01:05:37.188Z,7.15
2019-03-12T01:08:06.397Z,3.95
2019-03-12T01:10:35.617Z,3.60
2019-03-12T01:13:16.989Z,10.35
2019-03-12T01:15:46.581Z,8.80
2019-03-12T01:18:15.897Z,12.20
2019-03-12T01:20:45.071Z,7.33
2019-03-12T01:23:14.296Z,12.82
2019-03-12T01:25:43.499Z,9.85
2019-03-12T01:28:12.722Z,7.40
2019-03-12T01:30:41.919Z,7.78
2019-03-12T01:33:11.121Z,7.37
2019-03-12T01:35:40.339Z,10.38
2019-03-12T01:38:09.533Z,9.85
2019-03-12T01:40:38.807Z,6.90
2019-03-12T01:43:08.002Z,10.15
2019-03-12T01:45:37.252Z,8.20
2019-03-12T01:48:06.457Z,5.80
2019-03-12T01:50:35.712Z,8.40
2019-03-12T01:53:04.902Z,9.93
2019-03-12T01:55:34.146Z,7.50
2019-03-12T01:58:03.346Z,10.00
2019-03-12T02:00:32.546Z,11.83
2019-03-12T02:03:02.161Z,11.65
2019-03-12T02:05:31.353Z,11.75
2019-03-12T02:08:00.548Z,8.18
2019-03-12T02:10:29.756Z,13.03
2019-03-12T02:12:58.976Z,7.65
2019-03-12T02:15:28.217Z,11.40
2019-03-12T02:17:57.393Z,15.90
2019-03-12T02:23:01.333Z,13.53
2019-03-12T02:25:30.598Z,10.08
2019-03-12T02:27:59.825Z,10.43
2019-03-12T02:30:29.049Z,12.55
2019-03-12T02:32:58.266Z,14.55
2019-03-12T02:35:27.518Z,15.60
2019-03-12T02:37:56.785Z,15.48
2019-03-12T02:40:26.004Z,13.43
2019-03-12T02:42:55.259Z,12.50
2019-03-12T02:45:24.418Z,11.38
2019-03-12T02:47:54.918Z,8.20
2019-03-12T02:50:24.079Z,15.45
2019-03-12T02:52:53.280Z,10.20
2019-03-12T02:55:22.525Z,14.68
2019-03-12T02:57:51.710Z,12.88
2019-03-12T03:00:21.799Z,11.80
2019-03-12T03:02:51.425Z,17.27
2019-03-12T03:05:20.918Z,11.78
2019-03-12T03:07:52.440Z,17.50
2019-03-12T03:10:21.745Z,16.00
2019-03-12T03:12:51.004Z,13.62
2019-03-12T03:15:22.129Z,18.70
2019-03-12T03:17:51.320Z,17.95
2019-03-12T03:20:20.526Z,11.90
2019-03-12T03:22:49.722Z,12.07
2019-03-12T03:25:18.978Z,11.38
2019-03-12T03:27:48.205Z,11.38
2019-03-12T03:30:19.737Z,18.62
2019-03-12T03:32:48.943Z,11.93
2019-03-12T03:35:18.351Z,23.05
2019-03-12T03:37:47.548Z,14.80
2019-03-12T03:40:20.457Z,19.23
2019-03-12T03:42:49.830Z,12.40
2019-03-12T03:45:19.265Z,13.03
2019-03-12T03:47:48.578Z,23.80
2019-03-12T03:50:17.861Z,26.48
2019-03-12T03:52:47.013Z,21.90
2019-03-12T03:55:16.974Z,15.60
2019-03-12T03:57:46.181Z,11.38
2019-03-12T04:00:17.915Z,13.78
2019-03-12T04:02:47.222Z,14.45
2019-03-12T04:05:16.626Z,13.98
2019-03-12T04:07:45.987Z,10.45
2019-03-12T04:10:15.932Z,14.43
2019-03-12T04:12:45.197Z,13.58
2019-03-12T04:15:14.444Z,14.73
2019-03-12T04:17:43.681Z,12.50
2019-03-12T04:20:13.298Z,13.93
2019-03-12T04:22:42.573Z,11.05
2019-03-12T04:25:11.861Z,7.45
2019-03-12T04:27:41.051Z,8.30
2019-03-12T04:30:12.240Z,9.80
2019-03-12T04:32:41.430Z,19.00
2019-03-12T04:35:11.388Z,13.35
2019-03-12T04:37:40.595Z,13.58
2019-03-12T04:40:10.348Z,15.68
2019-03-12T04:42:39.521Z,19.02
2019-03-12T04:45:10.414Z,10.48
2019-03-12T04:47:39.619Z,12.10
2019-03-12T04:50:08.970Z,10.15
2019-03-12T04:52:38.120Z,10.48
2019-03-12T04:55:07.758Z,14.58
2019-03-12T04:57:36.982Z,9.73
2019-03-12T05:00:07.249Z,13.00
2019-03-12T05:02:36.433Z,13.88
2019-03-12T05:05:06.293Z,18.85
2019-03-12T05:07:35.501Z,12.70
2019-03-12T05:10:05.487Z,9.00
2019-03-12T05:12:34.717Z,11.65
2019-03-12T05:15:04.063Z,9.75
2019-03-12T05:17:34.823Z,17.60
2019-03-12T05:20:04.231Z,28.12
2019-03-12T05:22:33.459Z,29.72
2019-03-12T05:25:02.644Z,19.20
2019-03-12T05:27:31.844Z,18.82
2019-03-12T05:30:01.120Z,18.05
2019-03-12T05:32:30.370Z,19.12
2019-03-12T05:34:59.546Z,16.95
2019-03-12T05:37:28.750Z,19.52
2019-03-12T05:39:57.963Z,18.82
2019-03-12T05:42:27.281Z,17.25
2019-03-12T05:44:56.550Z,18.15
2019-03-12T05:47:25.758Z,18.40
2019-03-12T05:49:54.990Z,17.52
2019-03-12T05:52:24.206Z,20.70
2019-03-12T05:54:53.408Z,17.65
2019-03-12T05:57:22.620Z,15.70
2019-03-12T05:59:51.862Z,32.88
2019-03-12T06:02:21.074Z,17.48
2019-03-12T06:04:50.451Z,15.15
2019-03-12T06:07:19.657Z,19.23
2019-03-12T06:09:48.865Z,22.32
2019-03-12T06:12:18.075Z,23.83
2019-03-12T06:14:47.262Z,23.62
2019-03-12T06:17:16.500Z,18.70
2019-03-12T06:19:45.717Z,20.10
2019-03-12T06:22:14.905Z,29.37
2019-03-12T06:24:44.131Z,22.40
2019-03-12T06:27:13.365Z,27.58
2019-03-12T06:29:42.571Z,26.75
2019-03-12T06:32:36.497Z,23.40
2019-03-12T06:35:12.711Z,23.18
2019-03-12T06:37:50.198Z,22.77
2019-03-12T06:40:33.021Z,22.65
2019-03-12T06:43:19.605Z,25.92
2019-03-12T06:45:56.204Z,31.00
2019-03-12T06:48:37.555Z,47.10
2019-03-12T06:51:15.888Z,72.95
2019-03-12T06:54:01.354Z,21.48
2019-03-12T06:57:01.674Z,18.05
2019-03-12T06:59:58.814Z,21.30
2019-03-12T07:02:46.996Z,16.95
2019-03-12T07:05:47.595Z,15.18
2019-03-12T07:08:43.550Z,16.62
2019-03-12T07:11:30.423Z,15.68
2019-03-12T07:14:16.671Z,10.53
2019-03-12T07:17:13.783Z,10.63
2019-03-12T07:19:55.329Z,17.82
2019-03-12T07:22:49.375Z,16.12
2019-03-12T07:25:33.815Z,11.35
2019-03-12T07:28:20.730Z,10.90
2019-03-12T07:31:07.750Z,15.35
2019-03-12T07:34:07.833Z,11.83
2019-03-12T07:36:47.115Z,11.63
2019-03-12T07:39:44.449Z,16.02
2019-03-12T07:42:23.594Z,10.78
2019-03-12T07:45:23.761Z,14.33
2019-03-12T07:48:06.789Z,13.13
2019-03-12T07:50:41.983Z,11.08
2019-03-12T07:53:36.382Z,13.10
2019-03-12T07:56:22.676Z,9.15
2019-03-12T07:59:13.678Z,11.65
2019-03-12T08:02:00.376Z,13.88
2019-03-12T08:04:43.474Z,11.73
2019-03-12T08:07:27.142Z,11.97
2019-03-12T08:10:07.916Z,14.35
2019-03-12T08:12:46.929Z,12.55
2019-03-12T08:15:40.990Z,10.45
2019-03-12T08:18:35.383Z,11.73
2019-03-12T08:21:22.478Z,10.95
2019-03-12T08:24:13.558Z,10.00
2019-03-12T08:26:47.732Z,9.80
2019-03-12T08:29:38.943Z,9.23
2019-03-12T08:32:13.990Z,9.53
2019-03-12T08:34:55.209Z,9.20
2019-03-12T08:37:33.469Z,9.60
2019-03-12T08:40:27.605Z,12.10
2019-03-12T08:43:28.041Z,10.65
2019-03-12T08:46:08.885Z,9.43
2019-03-12T08:48:55.911Z,13.45
2019-03-12T08:51:44.099Z,12.43
2019-03-12T08:54:24.987Z,12.73
2019-03-12T08:57:19.189Z,15.10
2019-03-12T09:00:00.770Z,14.47
2019-03-12T09:02:36.434Z,13.48
2019-03-12T09:05:40.451Z,10.75
2019-03-12T09:08:27.395Z,15.93
2019-03-12T09:11:15.574Z,12.07
2019-03-12T09:13:52.509Z,18.75
2019-03-12T09:16:44.492Z,20.17
2019-03-12T09:19:36.224Z,13.78
2019-03-12T09:22:34.984Z,12.98
2019-03-12T09:25:39.078Z,14.50
2019-03-12T09:28:27.260Z,19.30
2019-03-12T09:31:14.270Z,18.20
2019-03-12T09:34:01.358Z,17.85
2019-03-12T09:36:49.510Z,18.40
2019-03-12T09:39:37.626Z,20.60
2019-03-12T09:42:28.676Z,14.05
2019-03-12T09:45:15.476Z,15.30
2019-03-12T09:47:54.645Z,18.55
2019-03-12T09:50:37.655Z,17.10
2019-03-12T09:53:28.616Z,18.12
2019-03-12T09:56:16.755Z,18.90
2019-03-12T09:59:08.005Z,16.17
2019-03-12T10:01:47.289Z,21.20
2019-03-12T10:04:34.175Z,18.05
2019-03-12T10:07:21.085Z,15.65
2019-03-12T10:10:15.411Z,17.30
2019-03-12T10:13:02.295Z,14.03
2019-03-12T10:15:49.219Z,17.40
2019-03-12T10:18:35.720Z,14.50
2019-03-12T10:21:27.038Z,14.60
2019-03-12T10:24:06.653Z,15.63
2019-03-12T10:26:50.801Z,22.02
2019-03-12T10:29:26.452Z,19.57
2019-03-12T10:32:08.895Z,18.73
2019-03-12T10:34:52.938Z,16.80
2019-03-12T10:37:29.884Z,15.43
2019-03-12T10:40:25.000Z,17.40
2019-03-12T10:43:21.796Z,18.17
2019-03-12T10:46:01.871Z,15.48
2019-03-12T10:48:32.015Z,13.95
2019-03-12T10:51:01.670Z,12.78
2019-03-12T10:53:30.848Z,14.13
2019-03-12T10:56:00.046Z,14.25
2019-03-12T10:58:29.240Z,15.35
2019-03-12T11:00:58.415Z,13.13
2019-03-12T11:03:27.604Z,13.15
2019-03-12T11:05:56.816Z,11.12
2019-03-12T11:08:26.011Z,13.03
2019-03-12T11:10:55.196Z,11.68
2019-03-12T11:13:24.394Z,11.97
2019-03-12T11:15:53.573Z,13.18
2019-03-12T11:18:22.769Z,8.98
2019-03-12T11:20:51.949Z,14.40
2019-03-12T11:23:21.133Z,13.65
2019-03-12T11:25:50.385Z,10.50
2019-03-12T11:28:19.687Z,12.35
2019-03-12T11:30:48.863Z,10.72
2019-03-12T11:33:18.090Z,12.90
2019-03-12T11:35:47.266Z,13.38
2019-03-12T11:38:16.513Z,16.73
2019-03-12T11:40:45.809Z,13.48
2019-03-12T11:43:15.038Z,10.93
2019-03-12T11:45:44.237Z,12.82
2019-03-12T11:48:13.493Z,15.32
2019-03-12T11:50:42.664Z,13.18
2019-03-12T11:53:11.860Z,18.70
2019-03-12T11:55:41.081Z,10.20
2019-03-12T11:58:10.265Z,10.48
2019-03-12T12:00:46.556Z,13.28
2019-03-12T12:03:15.838Z,12.55
2019-03-12T12:05:45.257Z,15.65
2019-03-12T12:08:14.434Z,12.93
2019-03-12T12:10:43.609Z,12.70
2019-03-12T12:13:12.820Z,14.13
2019-03-12T12:15:42.007Z,12.68
2019-03-12T12:18:11.222Z,12.07
2019-03-12T12:20:40.408Z,11.48
2019-03-12T12:23:09.681Z,10.88
2019-03-12T12:25:38.958Z,15.40
2019-03-12T12:28:08.158Z,11.15
2019-03-12T12:30:37.437Z,13.85
2019-03-12T12:33:06.851Z,11.10
2019-03-12T12:35:36.126Z,10.85
2019-03-12T12:38:05.347Z,11.08
2019-03-12T12:40:34.554Z,12.85
2019-03-12T12:43:07.015Z,18.10
2019-03-12T12:45:36.378Z,17.20
2019-03-12T12:48:05.570Z,14.35
2019-03-12T12:50:34.799Z,12.80
2019-03-12T12:53:03.989Z,15.65
2019-03-12T12:55:33.211Z,14.40
2019-03-12T12:58:02.495Z,11.83
2019-03-12T13:00:31.993Z,9.98
2019-03-12T13:03:01.190Z,10.45
2019-03-12T13:05:30.378Z,11.68
2019-03-12T13:07:59.578Z,12.25
2019-03-12T13:10:28.867Z,11.05
2019-03-12T13:12:58.042Z,12.80
2019-03-12T13:15:27.302Z,9.70
2019-03-12T13:17:56.482Z,12.07
2019-03-12T13:20:25.692Z,12.85
2019-03-12T13:22:54.892Z,10.50
2019-03-12T13:25:24.078Z,9.78
2019-03-12T13:27:53.309Z,13.30
2019-03-12T13:30:22.620Z,10.32
2019-03-12T13:32:51.842Z,14.45
2019-03-12T13:35:21.409Z,12.85
2019-03-12T13:37:50.639Z,12.50
2019-03-12T13:40:21.011Z,11.57
2019-03-12T13:42:50.371Z,12.58
2019-03-12T13:45:19.942Z,8.83
2019-03-12T13:47:49.498Z,9.88
2019-03-12T13:50:18.900Z,10.13
2019-03-12T13:52:48.159Z,9.13
2019-03-12T13:55:17.412Z,11.18
2019-03-12T13:57:46.825Z,8.73
2019-03-12T14:00:20.140Z,8.90
2019-03-12T14:02:49.406Z,10.13
2019-03-12T14:05:18.576Z,9.88
2019-03-12T14:07:47.755Z,8.93
2019-03-12T14:10:19.323Z,13.15
2019-03-12T14:12:48.740Z,10.18
2019-03-12T14:15:20.592Z,9.05
2019-03-12T14:17:49.747Z,10.70
2019-03-12T14:20:39.288Z,9.50
2019-03-12T14:23:08.557Z,10.10
2019-03-12T14:25:38.235Z,8.75
2019-03-12T14:28:07.462Z,10.13
2019-03-12T14:30:36.838Z,8.28
2019-03-12T14:33:06.128Z,8.68
2019-03-12T14:35:35.308Z,7.05
2019-03-12T14:38:04.802Z,8.38
2019-03-12T14:40:33.977Z,9.68
2019-03-12T14:43:03.279Z,10.18
2019-03-12T14:45:34.239Z,6.05
2019-03-12T14:48:03.478Z,10.00
2019-03-12T14:50:32.669Z,7.33
2019-03-12T14:53:07.520Z,8.33
2019-03-12T14:55:36.201Z,8.45
2019-03-12T14:58:05.735Z,10.30
2019-03-12T15:00:35.066Z,10.23
2019-03-12T15:03:04.252Z,9.58
2019-03-12T15:05:33.632Z,7.03
2019-03-12T15:08:03.073Z,8.03
2019-03-12T15:10:32.314Z,9.75
2019-03-12T15:13:01.752Z,6.65
2019-03-12T15:15:30.923Z,6.67
2019-03-12T15:18:00.155Z,7.20
2019-03-12T15:20:29.335Z,9.78
2019-03-12T15:22:58.567Z,7.55
2019-03-12T15:25:27.775Z,9.38
2019-03-12T15:27:57.100Z,9.15
2019-03-12T15:30:26.473Z,11.45
2019-03-12T15:32:55.753Z,11.93
2019-03-12T15:35:24.997Z,8.45
2019-03-12T15:37:54.230Z,8.40
2019-03-12T15:40:23.442Z,9.15
2019-03-12T15:42:52.798Z,7.47
2019-03-12T15:45:22.344Z,6.47
2019-03-12T15:47:51.656Z,6.92
2019-03-12T15:50:20.967Z,8.20
2019-03-12T15:52:50.225Z,7.87
2019-03-12T15:55:19.480Z,11.80
2019-03-12T15:57:48.934Z,8.23
2019-03-12T16:00:18.568Z,7.58
2019-03-12T16:02:47.964Z,11.20
2019-03-12T16:05:17.458Z,12.80
2019-03-12T16:07:46.841Z,11.25
2019-03-12T16:10:19.174Z,7.92
2019-03-12T16:12:47.073Z,7.53
2019-03-12T16:15:23.556Z,12.00
2019-03-12T16:17:52.789Z,10.40
2019-03-12T16:20:22.241Z,9.05
2019-03-12T16:22:51.661Z,7.67
2019-03-12T16:25:22.321Z,9.48
2019-03-12T16:27:51.531Z,11.33
2019-03-12T16:30:20.900Z,8.20
2019-03-12T16:32:50.083Z,9.93
2019-03-12T16:35:19.480Z,9.13
2019-03-12T16:37:48.676Z,11.57
2019-03-12T16:40:18.109Z,10.68
2019-03-12T16:42:47.821Z,8.93
2019-03-12T16:45:17.122Z,10.85
2019-03-12T16:47:46.395Z,7.62
2019-03-12T16:50:15.717Z,10.25
2019-03-12T16:52:44.945Z,8.88
2019-03-12T16:55:14.317Z,12.25
2019-03-12T16:57:43.499Z,13.80
2019-03-12T17:00:12.868Z,10.18
2019-03-12T17:02:42.066Z,8.03
2019-03-12T17:05:11.372Z,8.10
2019-03-12T17:07:40.590Z,9.73
2019-03-12T17:10:10.678Z,7.58
2019-03-12T17:12:40.192Z,9.40
2019-03-12T17:15:11.720Z,9.43
2019-03-12T17:17:41.343Z,10.05
2019-03-12T17:20:12.217Z,10.80
2019-03-12T17:22:41.428Z,7.85
2019-03-12T17:25:11.229Z,7.58
2019-03-12T17:27:41.130Z,10.78
2019-03-12T17:30:14.487Z,16.52
2019-03-12T17:32:43.768Z,10.03
2019-03-12T17:35:14.458Z,9.30
2019-03-12T17:37:43.797Z,9.65
2019-03-12T17:40:15.818Z,8.00
2019-03-12T17:42:45.269Z,14.07
2019-03-12T17:45:15.068Z,8.75
2019-03-12T17:47:44.294Z,9.48
2019-03-12T17:50:13.791Z,10.88
2019-03-12T17:52:43.223Z,9.55
2019-03-12T17:55:12.879Z,10.90
2019-03-12T17:57:42.104Z,8.38
2019-03-12T18:00:17.222Z,9.00
2019-03-12T18:02:46.718Z,8.40
2019-03-12T18:05:16.196Z,8.03
2019-03-12T18:07:45.438Z,10.58
2019-03-12T18:10:14.870Z,15.03
2019-03-12T18:12:44.099Z,8.95
2019-03-12T18:15:15.001Z,8.65
2019-03-12T18:17:45.741Z,8.75
2019-03-12T18:20:15.859Z,10.10
2019-03-12T18:22:45.827Z,8.85
2019-03-12T18:25:20.940Z,9.20
2019-03-12T18:27:50.540Z,8.90
2019-03-12T18:30:21.989Z,6.33
2019-03-12T18:32:51.222Z,7.80
2019-03-12T18:35:20.471Z,7.97
2019-03-12T18:37:50.118Z,9.30
2019-03-12T18:40:20.283Z,10.68
2019-03-12T18:42:49.586Z,7.70
2019-03-12T18:45:20.584Z,9.75
2019-03-12T18:47:49.941Z,9.58
2019-03-12T18:50:19.472Z,7.03
2019-03-12T18:52:48.838Z,9.93
2019-03-12T18:55:43.232Z,6.92
2019-03-12T18:58:12.880Z,8.73
2019-03-12T19:00:42.713Z,7.78
2019-03-12T19:03:12.183Z,9.08
2019-03-12T19:05:41.550Z,9.60
2019-03-12T19:08:10.769Z,9.40
2019-03-12T19:10:40.027Z,8.83
2019-03-12T19:13:09.379Z,7.42
2019-03-12T19:15:38.650Z,7.10
2019-03-12T19:18:08.209Z,7.60
2019-03-12T19:20:38.214Z,8.03
2019-03-12T19:23:08.177Z,6.83
2019-03-12T19:25:38.544Z,7.55
2019-03-12T19:28:09.877Z,5.05
2019-03-12T19:30:39.577Z,6.28
2019-03-12T19:33:11.344Z,8.73
2019-03-12T19:35:41.039Z,8.60
2019-03-12T19:38:10.680Z,4.17
2019-03-12T19:40:40.426Z,4.40
2019-03-12T19:43:10.147Z,3.72
2019-03-12T19:45:39.591Z,6.12
2019-03-12T19:48:08.837Z,8.78
2019-03-12T19:50:38.257Z,4.67
2019-03-12T19:53:07.591Z,6.58
2019-03-12T19:55:39.645Z,7.83
2019-03-12T19:58:08.920Z,8.48
2019-03-12T20:00:38.903Z,4.83
2019-03-12T20:03:12.029Z,5.70
2019-03-12T20:05:39.603Z,6.92
2019-03-12T20:08:09.116Z,6.33
2019-03-12T20:11:16.818Z,7.53
2019-03-12T20:14:29.029Z,5.50
2019-03-12T20:17:42.200Z,6.10
2019-03-12T20:20:58.265Z,7.97
2019-03-12T20:24:17.320Z,6.35
2019-03-12T20:27:24.214Z,7.00
2019-03-12T20:30:31.690Z,4.83
2019-03-12T20:33:49.563Z,7.20
2019-03-12T20:36:54.489Z,5.50
2019-03-12T20:40:07.724Z,5.20
2019-03-12T20:43:21.115Z,4.08
2019-03-12T20:46:39.015Z,3.72
2019-03-12T20:50:05.504Z,5.62
2019-03-12T20:53:27.473Z,5.55
2019-03-12T20:56:30.937Z,5.55
2019-03-12T20:59:45.543Z,5.50
2019-03-12T21:03:14.314Z,8.30
2019-03-12T21:06:26.360Z,4.45
2019-03-12T21:09:48.308Z,4.25
2019-03-12T21:13:17.413Z,4.92
2019-03-12T21:16:13.237Z,4.47
2019-03-12T21:19:30.861Z,3.75
2019-03-12T21:22:35.204Z,6.15
2019-03-12T21:25:46.395Z,8.48
2019-03-12T21:28:56.581Z,4.08
2019-03-12T21:31:25.812Z,3.42
2019-03-12T21:33:55.037Z,3.80
2019-03-12T21:36:24.524Z,3.62
2019-03-12T21:38:53.712Z,4.05
2019-03-12T21:41:23.119Z,5.00
2019-03-12T21:43:52.333Z,4.72
2019-03-12T21:46:21.876Z,5.42
2019-03-12T21:48:51.078Z,4.35
2019-03-12T21:51:20.361Z,4.42
2019-03-12T21:53:49.573Z,3.05
2019-03-12T21:56:18.747Z,5.03
2019-03-12T21:58:47.966Z,4.40
2019-03-12T22:01:17.349Z,3.27
2019-03-12T22:03:46.576Z,3.80
2019-03-12T22:06:15.816Z,3.55
2019-03-12T22:08:45.035Z,5.30
2019-03-12T22:11:14.253Z,4.65
2019-03-12T22:13:43.462Z,3.42
2019-03-12T22:16:12.741Z,3.60
2019-03-12T22:18:41.945Z,5.33
2019-03-12T22:21:11.531Z,6.05
2019-03-12T22:23:44.316Z,4.33
2019-03-12T22:26:13.527Z,3.92
2019-03-12T22:28:42.746Z,4.15
2019-03-12T22:31:11.953Z,4.45
2019-03-12T22:33:41.129Z,5.15
2019-03-12T22:36:10.323Z,4.15
2019-03-12T22:38:39.587Z,2.98
2019-03-12T22:41:08.789Z,5.65
2019-03-12T22:43:37.995Z,4.53
2019-03-12T22:46:07.216Z,3.42
2019-03-12T22:48:36.431Z,3.98
2019-03-12T22:51:05.623Z,3.25
2019-03-12T22:53:34.821Z,5.10
2019-03-12T22:56:04.004Z,6.40
2019-03-12T22:58:33.261Z,5.15
2019-03-12T23:01:02.694Z,7.58
2019-03-12T23:03:31.916Z,4.78
2019-03-12T23:06:01.111Z,2.95
2019-03-12T23:08:30.285Z,5.55
2019-03-12T23:10:59.466Z,2.80
2019-03-12T23:13:28.683Z,4.03
2019-03-12T23:15:57.958Z,4.08
2019-03-12T23:18:27.156Z,4.30
2019-03-12T23:20:56.408Z,3.67
2019-03-12T23:23:25.596Z,4.12
2019-03-12T23:25:54.784Z,1.40
2019-03-12T23:28:24.006Z,4.05
2019-03-12T23:30:53.192Z,2.25
2019-03-12T23:33:22.373Z,1.90
2019-03-12T23:35:54.867Z,0.72
2019-03-12T23:38:24.083Z,1.02
2019-03-12T23:40:53.350Z,0.70
2019-03-12T23:43:22.591Z,1.02
2019-03-12T23:45:51.787Z,0.75
2019-03-12T23:48:20.963Z,1.00
2019-03-12T23:50:50.161Z,0.80
2019-03-12T23:53:19.344Z,1.55
2019-03-12T23:55:48.652Z,1.35
2019-03-12T23:58:17.956Z,1.00
